sensor_id;sensor_type;location;lat;lon;timestamp;P1;durP1;ratioP1;P2;durP2;ratioP2
35330;SDS011;21441;52.190;20.910;2023-05-08T00:00:41;8.55;;;5.70;;
35330;SDS011;21441;52.190;20.910;2023-05-08T00:03:17;8.07;;;5.32;;
35330;SDS011;21441;52.190;20.910;2023-05-08T00:05:44;7.05;;;5.15;;
35330;SDS011;21441;52.190;20.910;2023-05-08T00:08:13;6.18;;;4.65;;
35330;SDS011;21441;52.190;20.910;2023-05-08T00:10:40;9.43;;;5.65;;
35330;SDS011;21441;52.190;20.910;2023-05-08T00:13:07;10.65;;;5.07;;
35330;SDS011;21441;52.190;20.910;2023-05-08T00:15:34;8.43;;;5.85;;
35330;SDS011;21441;52.190;20.910;2023-05-08T00:18:02;7.97;;;5.40;;
35330;SDS011;21441;52.190;20.910;2023-05-08T00:20:29;8.98;;;5.38;;
35330;SDS011;21441;52.190;20.910;2023-05-08T00:22:59;7.80;;;5.95;;
35330;SDS011;21441;52.190;20.910;2023-05-08T00:25:27;7.80;;;5.93;;
35330;SDS011;21441;52.190;20.910;2023-05-08T00:27:55;9.38;;;6.22;;
35330;SDS011;21441;52.190;20.910;2023-05-08T00:30:22;7.57;;;5.50;;
35330;SDS011;21441;52.190;20.910;2023-05-08T00:32:50;8.63;;;6.63;;
35330;SDS011;21441;52.190;20.910;2023-05-08T00:35:17;8.18;;;5.28;;
35330;SDS011;21441;52.190;20.910;2023-05-08T00:37:44;8.27;;;5.68;;
35330;SDS011;21441;52.190;20.910;2023-05-08T00:40:11;8.35;;;6.10;;
35330;SDS011;21441;52.190;20.910;2023-05-08T00:42:40;9.45;;;5.85;;
35330;SDS011;21441;52.190;20.910;2023-05-08T00:45:08;9.85;;;6.03;;
35330;SDS011;21441;52.190;20.910;2023-05-08T00:47:35;10.55;;;5.88;;
35330;SDS011;21441;52.190;20.910;2023-05-08T00:50:03;7.82;;;5.53;;
35330;SDS011;21441;52.190;20.910;2023-05-08T00:52:31;7.55;;;5.88;;
35330;SDS011;21441;52.190;20.910;2023-05-08T00:54:59;8.77;;;5.63;;
35330;SDS011;21441;52.190;20.910;2023-05-08T00:57:27;7.40;;;5.43;;
35330;SDS011;21441;52.190;20.910;2023-05-08T00:59:57;10.30;;;6.13;;
35330;SDS011;21441;52.190;20.910;2023-05-08T01:02:27;10.77;;;6.97;;
35330;SDS011;21441;52.190;20.910;2023-05-08T01:04:56;12.68;;;6.75;;
35330;SDS011;21441;52.190;20.910;2023-05-08T01:07:23;9.02;;;6.60;;
35330;SDS011;21441;52.190;20.910;2023-05-08T01:09:51;10.25;;;6.97;;
35330;SDS011;21441;52.190;20.910;2023-05-08T01:12:19;9.23;;;6.32;;
35330;SDS011;21441;52.190;20.910;2023-05-08T01:15:02;7.60;;;5.90;;
35330;SDS011;21441;52.190;20.910;2023-05-08T01:17:37;8.95;;;6.05;;
35330;SDS011;21441;52.190;20.910;2023-05-08T01:20:18;8.70;;;6.22;;
35330;SDS011;21441;52.190;20.910;2023-05-08T01:23:02;10.48;;;7.38;;
35330;SDS011;21441;52.190;20.910;2023-05-08T01:29:07;9.00;;;5.90;;
35330;SDS011;21441;52.190;20.910;2023-05-08T01:32:08;7.75;;;5.95;;
35330;SDS011;21441;52.190;20.910;2023-05-08T01:34:40;11.07;;;6.85;;
35330;SDS011;21441;52.190;20.910;2023-05-08T01:37:14;9.30;;;6.13;;
35330;SDS011;21441;52.190;20.910;2023-05-08T01:39:47;10.05;;;7.38;;
35330;SDS011;21441;52.190;20.910;2023-05-08T01:42:21;9.82;;;6.63;;
35330;SDS011;21441;52.190;20.910;2023-05-08T01:44:52;9.43;;;6.70;;
35330;SDS011;21441;52.190;20.910;2023-05-08T01:47:24;8.45;;;6.45;;
35330;SDS011;21441;52.190;20.910;2023-05-08T01:49:58;8.98;;;6.25;;
35330;SDS011;21441;52.190;20.910;2023-05-08T01:52:31;9.20;;;6.43;;
35330;SDS011;21441;52.190;20.910;2023-05-08T01:55:02;10.63;;;6.88;;
35330;SDS011;21441;52.190;20.910;2023-05-08T02:00:01;8.95;;;6.10;;
35330;SDS011;21441;52.190;20.910;2023-05-08T02:02:31;9.77;;;6.33;;
35330;SDS011;21441;52.190;20.910;2023-05-08T02:05:01;7.53;;;5.90;;
35330;SDS011;21441;52.190;20.910;2023-05-08T02:07:30;8.67;;;6.43;;
35330;SDS011;21441;52.190;20.910;2023-05-08T02:10:00;11.85;;;6.45;;
35330;SDS011;21441;52.190;20.910;2023-05-08T02:12:28;10.02;;;6.72;;
35330;SDS011;21441;52.190;20.910;2023-05-08T02:14:58;9.65;;;7.13;;
35330;SDS011;21441;52.190;20.910;2023-05-08T02:17:26;9.02;;;6.78;;
35330;SDS011;21441;52.190;20.910;2023-05-08T02:19:56;14.48;;;8.32;;
35330;SDS011;21441;52.190;20.910;2023-05-08T02:22:24;9.15;;;7.13;;
35330;SDS011;21441;52.190;20.910;2023-05-08T02:24:53;11.20;;;6.85;;
35330;SDS011;21441;52.190;20.910;2023-05-08T02:27:21;11.02;;;6.72;;
35330;SDS011;21441;52.190;20.910;2023-05-08T02:29:52;14.10;;;7.63;;
35330;SDS011;21441;52.190;20.910;2023-05-08T02:32:20;11.13;;;7.80;;
35330;SDS011;21441;52.190;20.910;2023-05-08T02:37:20;9.98;;;6.95;;
35330;SDS011;21441;52.190;20.910;2023-05-08T02:39:48;10.30;;;7.45;;
35330;SDS011;21441;52.190;20.910;2023-05-08T02:42:19;14.10;;;9.93;;
35330;SDS011;21441;52.190;20.910;2023-05-08T02:44:46;11.48;;;8.60;;
35330;SDS011;21441;52.190;20.910;2023-05-08T02:47:14;11.02;;;7.35;;
35330;SDS011;21441;52.190;20.910;2023-05-08T02:49:49;13.68;;;6.60;;
35330;SDS011;21441;52.190;20.910;2023-05-08T02:52:24;11.40;;;7.10;;
35330;SDS011;21441;52.190;20.910;2023-05-08T02:54:55;9.75;;;5.97;;
35330;SDS011;21441;52.190;20.910;2023-05-08T02:57:29;9.02;;;6.00;;
35330;SDS011;21441;52.190;20.910;2023-05-08T03:00:02;9.95;;;5.85;;
35330;SDS011;21441;52.190;20.910;2023-05-08T03:02:34;12.18;;;6.82;;
35330;SDS011;21441;52.190;20.910;2023-05-08T03:05:10;9.60;;;7.13;;
35330;SDS011;21441;52.190;20.910;2023-05-08T03:07:42;8.15;;;6.13;;
35330;SDS011;21441;52.190;20.910;2023-05-08T03:10:13;10.85;;;6.07;;
35330;SDS011;21441;52.190;20.910;2023-05-08T03:12:43;8.43;;;6.35;;
35330;SDS011;21441;52.190;20.910;2023-05-08T03:15:20;7.82;;;5.63;;
35330;SDS011;21441;52.190;20.910;2023-05-08T03:17:51;8.75;;;6.25;;
35330;SDS011;21441;52.190;20.910;2023-05-08T03:20:21;8.73;;;6.22;;
35330;SDS011;21441;52.190;20.910;2023-05-08T03:22:51;8.35;;;5.50;;
35330;SDS011;21441;52.190;20.910;2023-05-08T03:25:21;8.10;;;5.45;;
35330;SDS011;21441;52.190;20.910;2023-05-08T03:27:49;12.05;;;6.20;;
35330;SDS011;21441;52.190;20.910;2023-05-08T03:30:18;8.73;;;6.38;;
35330;SDS011;21441;52.190;20.910;2023-05-08T03:32:46;10.18;;;7.15;;
35330;SDS011;21441;52.190;20.910;2023-05-08T03:35:15;8.52;;;5.72;;
35330;SDS011;21441;52.190;20.910;2023-05-08T03:37:43;11.50;;;6.53;;
35330;SDS011;21441;52.190;20.910;2023-05-08T03:40:12;11.20;;;6.53;;
35330;SDS011;21441;52.190;20.910;2023-05-08T03:42:39;10.77;;;7.18;;
35330;SDS011;21441;52.190;20.910;2023-05-08T03:45:08;8.80;;;6.68;;
35330;SDS011;21441;52.190;20.910;2023-05-08T03:47:36;9.38;;;7.05;;
35330;SDS011;21441;52.190;20.910;2023-05-08T03:50:05;9.32;;;6.90;;
35330;SDS011;21441;52.190;20.910;2023-05-08T03:52:34;9.93;;;6.97;;
35330;SDS011;21441;52.190;20.910;2023-05-08T03:55:02;10.38;;;7.80;;
35330;SDS011;21441;52.190;20.910;2023-05-08T03:57:33;9.02;;;6.93;;
35330;SDS011;21441;52.190;20.910;2023-05-08T04:00:07;7.82;;;6.32;;
35330;SDS011;21441;52.190;20.910;2023-05-08T04:02:43;9.10;;;6.32;;
35330;SDS011;21441;52.190;20.910;2023-05-08T04:05:16;8.70;;;6.72;;
35330;SDS011;21441;52.190;20.910;2023-05-08T04:07:50;9.10;;;6.90;;
35330;SDS011;21441;52.190;20.910;2023-05-08T04:10:20;10.35;;;6.50;;
35330;SDS011;21441;52.190;20.910;2023-05-08T04:12:56;13.90;;;7.22;;
35330;SDS011;21441;52.190;20.910;2023-05-08T04:15:32;8.15;;;7.28;;
35330;SDS011;21441;52.190;20.910;2023-05-08T04:18:03;10.50;;;8.23;;
35330;SDS011;21441;52.190;20.910;2023-05-08T04:20:33;9.27;;;6.95;;
35330;SDS011;21441;52.190;20.910;2023-05-08T04:23:04;12.25;;;7.78;;
35330;SDS011;21441;52.190;20.910;2023-05-08T04:25:33;9.38;;;8.43;;
35330;SDS011;21441;52.190;20.910;2023-05-08T04:28:05;10.38;;;7.18;;
35330;SDS011;21441;52.190;20.910;2023-05-08T04:30:32;9.80;;;6.78;;
35330;SDS011;21441;52.190;20.910;2023-05-08T04:33:01;9.02;;;7.78;;
35330;SDS011;21441;52.190;20.910;2023-05-08T04:35:29;13.30;;;10.52;;
35330;SDS011;21441;52.190;20.910;2023-05-08T04:37:57;15.27;;;12.20;;
35330;SDS011;21441;52.190;20.910;2023-05-08T04:40:25;14.43;;;12.93;;
35330;SDS011;21441;52.190;20.910;2023-05-08T04:42:52;12.23;;;10.10;;
35330;SDS011;21441;52.190;20.910;2023-05-08T04:45:21;13.73;;;9.75;;
35330;SDS011;21441;52.190;20.910;2023-05-08T04:47:49;6.68;;;4.93;;
35330;SDS011;21441;52.190;20.910;2023-05-08T04:50:16;7.75;;;3.53;;
35330;SDS011;21441;52.190;20.910;2023-05-08T04:52:43;5.10;;;3.75;;
35330;SDS011;21441;52.190;20.910;2023-05-08T04:55:10;5.53;;;3.97;;
35330;SDS011;21441;52.190;20.910;2023-05-08T04:57:37;3.63;;;3.08;;
35330;SDS011;21441;52.190;20.910;2023-05-08T05:00:05;3.90;;;2.70;;
35330;SDS011;21441;52.190;20.910;2023-05-08T05:02:34;4.07;;;3.05;;
35330;SDS011;21441;52.190;20.910;2023-05-08T05:05:02;5.85;;;3.22;;
35330;SDS011;21441;52.190;20.910;2023-05-08T05:07:29;4.63;;;3.00;;
35330;SDS011;21441;52.190;20.910;2023-05-08T05:09:56;4.72;;;3.13;;
35330;SDS011;21441;52.190;20.910;2023-05-08T05:12:24;4.20;;;2.67;;
35330;SDS011;21441;52.190;20.910;2023-05-08T05:14:51;3.90;;;2.38;;
35330;SDS011;21441;52.190;20.910;2023-05-08T05:17:18;3.40;;;2.78;;
35330;SDS011;21441;52.190;20.910;2023-05-08T05:19:47;4.40;;;2.30;;
35330;SDS011;21441;52.190;20.910;2023-05-08T05:22:14;3.17;;;2.10;;
35330;SDS011;21441;52.190;20.910;2023-05-08T05:24:42;3.20;;;2.15;;
35330;SDS011;21441;52.190;20.910;2023-05-08T05:27:09;2.80;;;2.15;;
35330;SDS011;21441;52.190;20.910;2023-05-08T05:29:36;3.10;;;2.28;;
35330;SDS011;21441;52.190;20.910;2023-05-08T05:32:03;2.58;;;1.90;;
35330;SDS011;21441;52.190;20.910;2023-05-08T05:34:31;2.47;;;2.08;;
35330;SDS011;21441;52.190;20.910;2023-05-08T05:37:00;2.72;;;2.05;;
35330;SDS011;21441;52.190;20.910;2023-05-08T05:39:27;2.22;;;2.03;;
35330;SDS011;21441;52.190;20.910;2023-05-08T05:41:54;3.20;;;2.10;;
35330;SDS011;21441;52.190;20.910;2023-05-08T05:44:21;2.33;;;1.90;;
35330;SDS011;21441;52.190;20.910;2023-05-08T05:46:48;2.72;;;1.50;;
35330;SDS011;21441;52.190;20.910;2023-05-08T05:49:16;2.35;;;1.73;;
35330;SDS011;21441;52.190;20.910;2023-05-08T05:51:43;1.88;;;1.50;;
35330;SDS011;21441;52.190;20.910;2023-05-08T05:54:11;2.15;;;1.63;;
35330;SDS011;21441;52.190;20.910;2023-05-08T05:56:38;3.05;;;1.55;;
35330;SDS011;21441;52.190;20.910;2023-05-08T05:59:06;4.82;;;1.90;;
35330;SDS011;21441;52.190;20.910;2023-05-08T06:01:33;4.15;;;1.95;;
35330;SDS011;21441;52.190;20.910;2023-05-08T06:04:00;2.15;;;1.73;;
35330;SDS011;21441;52.190;20.910;2023-05-08T06:06:27;3.13;;;1.98;;
35330;SDS011;21441;52.190;20.910;2023-05-08T06:08:54;3.70;;;2.15;;
35330;SDS011;21441;52.190;20.910;2023-05-08T06:11:23;2.85;;;1.98;;
35330;SDS011;21441;52.190;20.910;2023-05-08T06:13:50;2.58;;;2.20;;
35330;SDS011;21441;52.190;20.910;2023-05-08T06:16:17;2.05;;;1.60;;
35330;SDS011;21441;52.190;20.910;2023-05-08T06:18:45;5.88;;;1.60;;
35330;SDS011;21441;52.190;20.910;2023-05-08T06:21:12;3.25;;;2.25;;
35330;SDS011;21441;52.190;20.910;2023-05-08T06:23:39;3.28;;;2.38;;
35330;SDS011;21441;52.190;20.910;2023-05-08T06:26:07;3.90;;;1.85;;
35330;SDS011;21441;52.190;20.910;2023-05-08T06:28:36;2.90;;;1.63;;
35330;SDS011;21441;52.190;20.910;2023-05-08T06:31:03;2.20;;;2.00;;
35330;SDS011;21441;52.190;20.910;2023-05-08T06:33:30;1.77;;;1.60;;
35330;SDS011;21441;52.190;20.910;2023-05-08T06:35:57;1.85;;;1.50;;
35330;SDS011;21441;52.190;20.910;2023-05-08T06:38:25;1.77;;;1.67;;
35330;SDS011;21441;52.190;20.910;2023-05-08T06:40:52;2.33;;;1.75;;
35330;SDS011;21441;52.190;20.910;2023-05-08T06:43:20;2.38;;;1.65;;
35330;SDS011;21441;52.190;20.910;2023-05-08T06:45:48;2.65;;;2.10;;
35330;SDS011;21441;52.190;20.910;2023-05-08T06:48:17;4.43;;;2.20;;
35330;SDS011;21441;52.190;20.910;2023-05-08T06:50:45;3.38;;;2.33;;
35330;SDS011;21441;52.190;20.910;2023-05-08T06:53:12;2.65;;;1.90;;
35330;SDS011;21441;52.190;20.910;2023-05-08T06:55:41;2.25;;;1.80;;
35330;SDS011;21441;52.190;20.910;2023-05-08T06:58:09;4.60;;;2.03;;
35330;SDS011;21441;52.190;20.910;2023-05-08T07:00:36;3.33;;;1.80;;
35330;SDS011;21441;52.190;20.910;2023-05-08T07:03:05;2.88;;;2.10;;
35330;SDS011;21441;52.190;20.910;2023-05-08T07:05:32;4.18;;;2.63;;
35330;SDS011;21441;52.190;20.910;2023-05-08T07:07:59;3.28;;;2.15;;
35330;SDS011;21441;52.190;20.910;2023-05-08T07:10:27;4.60;;;2.15;;
35330;SDS011;21441;52.190;20.910;2023-05-08T07:12:54;3.70;;;2.13;;
35330;SDS011;21441;52.190;20.910;2023-05-08T07:15:21;3.05;;;2.35;;
35330;SDS011;21441;52.190;20.910;2023-05-08T07:17:48;3.33;;;2.40;;
35330;SDS011;21441;52.190;20.910;2023-05-08T07:20:17;3.97;;;2.28;;
35330;SDS011;21441;52.190;20.910;2023-05-08T07:22:44;2.70;;;2.25;;
35330;SDS011;21441;52.190;20.910;2023-05-08T07:25:11;4.00;;;2.25;;
35330;SDS011;21441;52.190;20.910;2023-05-08T07:27:39;3.15;;;2.70;;
35330;SDS011;21441;52.190;20.910;2023-05-08T07:30:06;3.88;;;2.42;;
35330;SDS011;21441;52.190;20.910;2023-05-08T07:32:34;3.70;;;2.40;;
35330;SDS011;21441;52.190;20.910;2023-05-08T07:35:03;3.13;;;2.00;;
35330;SDS011;21441;52.190;20.910;2023-05-08T07:37:34;4.53;;;2.90;;
35330;SDS011;21441;52.190;20.910;2023-05-08T07:40:01;4.10;;;2.55;;
35330;SDS011;21441;52.190;20.910;2023-05-08T07:42:28;3.47;;;2.42;;
35330;SDS011;21441;52.190;20.910;2023-05-08T07:44:55;2.85;;;1.95;;
35330;SDS011;21441;52.190;20.910;2023-05-08T07:47:23;4.28;;;3.15;;
35330;SDS011;21441;52.190;20.910;2023-05-08T07:49:50;4.65;;;2.33;;
35330;SDS011;21441;52.190;20.910;2023-05-08T07:52:17;4.18;;;2.28;;
35330;SDS011;21441;52.190;20.910;2023-05-08T07:54:45;4.25;;;2.65;;
35330;SDS011;21441;52.190;20.910;2023-05-08T07:57:13;3.33;;;2.60;;
35330;SDS011;21441;52.190;20.910;2023-05-08T07:59:40;3.53;;;2.13;;
35330;SDS011;21441;52.190;20.910;2023-05-08T08:02:07;3.15;;;2.25;;
35330;SDS011;21441;52.190;20.910;2023-05-08T08:04:34;5.18;;;2.40;;
35330;SDS011;21441;52.190;20.910;2023-05-08T08:07:01;2.75;;;1.70;;
35330;SDS011;21441;52.190;20.910;2023-05-08T08:09:28;4.70;;;2.65;;
35330;SDS011;21441;52.190;20.910;2023-05-08T08:11:57;2.95;;;2.10;;
35330;SDS011;21441;52.190;20.910;2023-05-08T08:14:25;3.17;;;2.42;;
35330;SDS011;21441;52.190;20.910;2023-05-08T08:16:53;2.90;;;1.83;;
35330;SDS011;21441;52.190;20.910;2023-05-08T08:19:20;4.30;;;2.33;;
35330;SDS011;21441;52.190;20.910;2023-05-08T08:21:51;4.85;;;2.13;;
35330;SDS011;21441;52.190;20.910;2023-05-08T08:24:18;4.03;;;2.33;;
35330;SDS011;21441;52.190;20.910;2023-05-08T08:26:46;4.90;;;2.20;;
35330;SDS011;21441;52.190;20.910;2023-05-08T08:29:15;2.70;;;2.05;;
35330;SDS011;21441;52.190;20.910;2023-05-08T08:34:10;5.38;;;2.50;;
35330;SDS011;21441;52.190;20.910;2023-05-08T08:36:38;2.28;;;2.08;;
35330;SDS011;21441;52.190;20.910;2023-05-08T08:39:05;3.17;;;2.17;;
35330;SDS011;21441;52.190;20.910;2023-05-08T08:41:35;2.53;;;1.88;;
35330;SDS011;21441;52.190;20.910;2023-05-08T08:44:04;3.60;;;2.33;;
35330;SDS011;21441;52.190;20.910;2023-05-08T08:46:33;3.95;;;2.30;;
35330;SDS011;21441;52.190;20.910;2023-05-08T08:49:05;6.15;;;2.80;;
35330;SDS011;21441;52.190;20.910;2023-05-08T08:51:39;2.33;;;2.13;;
35330;SDS011;21441;52.190;20.910;2023-05-08T08:54:12;5.35;;;2.22;;
35330;SDS011;21441;52.190;20.910;2023-05-08T08:56:40;3.25;;;2.33;;
35330;SDS011;21441;52.190;20.910;2023-05-08T08:59:10;3.38;;;2.25;;
35330;SDS011;21441;52.190;20.910;2023-05-08T09:01:40;4.80;;;2.35;;
35330;SDS011;21441;52.190;20.910;2023-05-08T09:04:10;3.05;;;2.05;;
35330;SDS011;21441;52.190;20.910;2023-05-08T09:06:38;5.93;;;2.17;;
35330;SDS011;21441;52.190;20.910;2023-05-08T09:09:05;4.28;;;2.35;;
35330;SDS011;21441;52.190;20.910;2023-05-08T09:11:33;4.25;;;2.30;;
35330;SDS011;21441;52.190;20.910;2023-05-08T09:14:01;2.25;;;1.90;;
35330;SDS011;21441;52.190;20.910;2023-05-08T09:16:29;3.03;;;1.88;;
35330;SDS011;21441;52.190;20.910;2023-05-08T09:18:57;4.22;;;2.28;;
35330;SDS011;21441;52.190;20.910;2023-05-08T09:21:25;5.22;;;2.08;;
35330;SDS011;21441;52.190;20.910;2023-05-08T09:23:53;3.97;;;2.55;;
35330;SDS011;21441;52.190;20.910;2023-05-08T09:26:31;2.63;;;2.08;;
35330;SDS011;21441;52.190;20.910;2023-05-08T09:29:08;3.53;;;1.80;;
35330;SDS011;21441;52.190;20.910;2023-05-08T09:31:37;3.88;;;2.60;;
35330;SDS011;21441;52.190;20.910;2023-05-08T09:34:06;2.47;;;1.90;;
35330;SDS011;21441;52.190;20.910;2023-05-08T09:36:35;2.30;;;1.77;;
35330;SDS011;21441;52.190;20.910;2023-05-08T09:39:05;2.63;;;2.07;;
35330;SDS011;21441;52.190;20.910;2023-05-08T09:41:37;2.53;;;1.95;;
35330;SDS011;21441;52.190;20.910;2023-05-08T09:44:05;4.50;;;1.98;;
35330;SDS011;21441;52.190;20.910;2023-05-08T09:46:33;3.15;;;2.20;;
35330;SDS011;21441;52.190;20.910;2023-05-08T09:49:00;3.60;;;2.20;;
35330;SDS011;21441;52.190;20.910;2023-05-08T09:51:30;2.50;;;1.90;;
35330;SDS011;21441;52.190;20.910;2023-05-08T09:53:58;2.75;;;2.10;;
35330;SDS011;21441;52.190;20.910;2023-05-08T09:56:29;2.30;;;2.10;;
35330;SDS011;21441;52.190;20.910;2023-05-08T09:58:57;3.35;;;1.92;;
35330;SDS011;21441;52.190;20.910;2023-05-08T10:01:28;4.00;;;2.13;;
35330;SDS011;21441;52.190;20.910;2023-05-08T10:03:56;3.58;;;2.55;;
35330;SDS011;21441;52.190;20.910;2023-05-08T10:06:24;2.20;;;2.00;;
35330;SDS011;21441;52.190;20.910;2023-05-08T10:09:06;4.55;;;2.80;;
35330;SDS011;21441;52.190;20.910;2023-05-08T10:11:35;3.40;;;1.90;;
35330;SDS011;21441;52.190;20.910;2023-05-08T10:14:02;2.10;;;1.58;;
35330;SDS011;21441;52.190;20.910;2023-05-08T10:16:30;2.08;;;1.60;;
35330;SDS011;21441;52.190;20.910;2023-05-08T10:19:01;2.55;;;2.08;;
35330;SDS011;21441;52.190;20.910;2023-05-08T10:21:37;3.45;;;2.10;;
35330;SDS011;21441;52.190;20.910;2023-05-08T10:24:12;4.70;;;1.90;;
35330;SDS011;21441;52.190;20.910;2023-05-08T10:26:42;2.22;;;1.77;;
35330;SDS011;21441;52.190;20.910;2023-05-08T10:29:16;2.10;;;1.83;;
35330;SDS011;21441;52.190;20.910;2023-05-08T10:31:47;5.78;;;2.05;;
35330;SDS011;21441;52.190;20.910;2023-05-08T10:34:18;3.03;;;1.60;;
35330;SDS011;21441;52.190;20.910;2023-05-08T10:36:45;3.13;;;2.00;;
35330;SDS011;21441;52.190;20.910;2023-05-08T10:39:14;3.35;;;2.03;;
35330;SDS011;21441;52.190;20.910;2023-05-08T10:41:43;3.13;;;1.80;;
35330;SDS011;21441;52.190;20.910;2023-05-08T10:44:10;2.85;;;1.73;;
35330;SDS011;21441;52.190;20.910;2023-05-08T10:46:39;2.50;;;1.63;;
35330;SDS011;21441;52.190;20.910;2023-05-08T10:49:17;3.88;;;1.90;;
35330;SDS011;21441;52.190;20.910;2023-05-08T10:51:52;2.60;;;2.20;;
35330;SDS011;21441;52.190;20.910;2023-05-08T10:54:33;2.97;;;2.10;;
35330;SDS011;21441;52.190;20.910;2023-05-08T10:57:09;2.47;;;1.83;;
35330;SDS011;21441;52.190;20.910;2023-05-08T10:59:36;3.55;;;1.83;;
35330;SDS011;21441;52.190;20.910;2023-05-08T11:02:04;2.65;;;1.85;;
35330;SDS011;21441;52.190;20.910;2023-05-08T11:04:32;3.78;;;2.03;;
35330;SDS011;21441;52.190;20.910;2023-05-08T11:07:00;3.58;;;1.77;;
35330;SDS011;21441;52.190;20.910;2023-05-08T11:09:30;2.55;;;2.03;;
35330;SDS011;21441;52.190;20.910;2023-05-08T11:12:19;3.88;;;2.10;;
35330;SDS011;21441;52.190;20.910;2023-05-08T11:14:54;2.97;;;1.58;;
35330;SDS011;21441;52.190;20.910;2023-05-08T11:17:25;3.28;;;1.85;;
35330;SDS011;21441;52.190;20.910;2023-05-08T11:19:55;2.35;;;2.08;;
35330;SDS011;21441;52.190;20.910;2023-05-08T11:22:25;2.13;;;1.75;;
35330;SDS011;21441;52.190;20.910;2023-05-08T11:24:56;2.20;;;1.75;;
35330;SDS011;21441;52.190;20.910;2023-05-08T11:27:32;2.85;;;1.85;;
35330;SDS011;21441;52.190;20.910;2023-05-08T11:30:23;3.63;;;1.85;;
35330;SDS011;21441;52.190;20.910;2023-05-08T11:32:56;3.85;;;2.30;;
35330;SDS011;21441;52.190;20.910;2023-05-08T11:35:40;3.15;;;1.90;;
35330;SDS011;21441;52.190;20.910;2023-05-08T11:38:15;4.97;;;1.80;;
35330;SDS011;21441;52.190;20.910;2023-05-08T11:40:48;2.53;;;1.73;;
35330;SDS011;21441;52.190;20.910;2023-05-08T11:43:24;3.58;;;2.10;;
35330;SDS011;21441;52.190;20.910;2023-05-08T11:45:58;4.10;;;2.30;;
35330;SDS011;21441;52.190;20.910;2023-05-08T11:48:26;3.20;;;2.30;;
35330;SDS011;21441;52.190;20.910;2023-05-08T11:50:53;1.90;;;1.73;;
35330;SDS011;21441;52.190;20.910;2023-05-08T11:53:21;2.33;;;2.13;;
35330;SDS011;21441;52.190;20.910;2023-05-08T11:55:51;3.10;;;2.13;;
35330;SDS011;21441;52.190;20.910;2023-05-08T11:58:19;2.15;;;1.75;;
35330;SDS011;21441;52.190;20.910;2023-05-08T12:00:46;2.75;;;2.10;;
35330;SDS011;21441;52.190;20.910;2023-05-08T12:03:15;4.03;;;3.33;;
35330;SDS011;21441;52.190;20.910;2023-05-08T12:05:43;3.88;;;2.38;;
35330;SDS011;21441;52.190;20.910;2023-05-08T12:08:11;3.47;;;2.13;;
35330;SDS011;21441;52.190;20.910;2023-05-08T12:10:39;3.67;;;2.15;;
35330;SDS011;21441;52.190;20.910;2023-05-08T12:13:18;4.95;;;2.13;;
35330;SDS011;21441;52.190;20.910;2023-05-08T12:15:46;2.80;;;2.10;;
35330;SDS011;21441;52.190;20.910;2023-05-08T12:18:15;2.80;;;2.25;;
35330;SDS011;21441;52.190;20.910;2023-05-08T12:20:43;3.47;;;2.13;;
35330;SDS011;21441;52.190;20.910;2023-05-08T12:23:10;2.55;;;2.13;;
35330;SDS011;21441;52.190;20.910;2023-05-08T12:25:39;2.72;;;2.05;;
35330;SDS011;21441;52.190;20.910;2023-05-08T12:28:06;2.72;;;2.10;;
35330;SDS011;21441;52.190;20.910;2023-05-08T12:30:35;3.45;;;2.65;;
35330;SDS011;21441;52.190;20.910;2023-05-08T12:33:03;2.95;;;1.92;;
35330;SDS011;21441;52.190;20.910;2023-05-08T12:35:31;2.83;;;1.95;;
35330;SDS011;21441;52.190;20.910;2023-05-08T12:37:59;2.97;;;2.20;;
35330;SDS011;21441;52.190;20.910;2023-05-08T12:40:28;4.38;;;2.05;;
35330;SDS011;21441;52.190;20.910;2023-05-08T12:42:58;2.30;;;2.10;;
35330;SDS011;21441;52.190;20.910;2023-05-08T12:45:27;2.42;;;2.08;;
35330;SDS011;21441;52.190;20.910;2023-05-08T12:47:59;2.67;;;1.98;;
35330;SDS011;21441;52.190;20.910;2023-05-08T12:50:28;2.33;;;1.95;;
35330;SDS011;21441;52.190;20.910;2023-05-08T12:53:03;2.30;;;2.10;;
35330;SDS011;21441;52.190;20.910;2023-05-08T12:55:32;3.72;;;1.95;;
35330;SDS011;21441;52.190;20.910;2023-05-08T12:58:01;3.15;;;2.00;;
35330;SDS011;21441;52.190;20.910;2023-05-08T13:00:35;4.47;;;2.30;;
35330;SDS011;21441;52.190;20.910;2023-05-08T13:03:05;2.75;;;2.00;;
35330;SDS011;21441;52.190;20.910;2023-05-08T13:05:33;3.60;;;1.90;;
35330;SDS011;21441;52.190;20.910;2023-05-08T13:08:02;2.38;;;2.17;;
35330;SDS011;21441;52.190;20.910;2023-05-08T13:10:43;2.72;;;1.67;;
35330;SDS011;21441;52.190;20.910;2023-05-08T13:13:11;5.03;;;1.65;;
35330;SDS011;21441;52.190;20.910;2023-05-08T13:15:39;3.75;;;1.88;;
35330;SDS011;21441;52.190;20.910;2023-05-08T13:18:08;2.72;;;2.03;;
35330;SDS011;21441;52.190;20.910;2023-05-08T13:20:35;2.42;;;2.22;;
35330;SDS011;21441;52.190;20.910;2023-05-08T13:23:03;2.17;;;1.65;;
35330;SDS011;21441;52.190;20.910;2023-05-08T13:25:31;3.78;;;2.30;;
35330;SDS011;21441;52.190;20.910;2023-05-08T13:27:59;3.85;;;2.55;;
35330;SDS011;21441;52.190;20.910;2023-05-08T13:30:26;3.25;;;2.03;;
35330;SDS011;21441;52.190;20.910;2023-05-08T13:32:54;2.45;;;2.00;;
35330;SDS011;21441;52.190;20.910;2023-05-08T13:35:22;2.72;;;2.10;;
35330;SDS011;21441;52.190;20.910;2023-05-08T13:37:50;2.20;;;1.80;;
35330;SDS011;21441;52.190;20.910;2023-05-08T13:40:17;3.50;;;2.25;;
35330;SDS011;21441;52.190;20.910;2023-05-08T13:42:45;2.97;;;2.33;;
35330;SDS011;21441;52.190;20.910;2023-05-08T13:45:12;4.90;;;2.03;;
35330;SDS011;21441;52.190;20.910;2023-05-08T13:47:40;5.50;;;1.90;;
35330;SDS011;21441;52.190;20.910;2023-05-08T13:50:07;3.17;;;1.80;;
35330;SDS011;21441;52.190;20.910;2023-05-08T13:52:37;6.15;;;2.00;;
35330;SDS011;21441;52.190;20.910;2023-05-08T13:55:05;2.08;;;1.88;;
35330;SDS011;21441;52.190;20.910;2023-05-08T13:57:34;4.95;;;2.30;;
35330;SDS011;21441;52.190;20.910;2023-05-08T14:00:01;3.58;;;2.20;;
35330;SDS011;21441;52.190;20.910;2023-05-08T14:02:29;2.20;;;1.90;;
35330;SDS011;21441;52.190;20.910;2023-05-08T14:04:56;4.57;;;2.58;;
35330;SDS011;21441;52.190;20.910;2023-05-08T14:07:23;2.95;;;1.95;;
35330;SDS011;21441;52.190;20.910;2023-05-08T14:09:54;5.07;;;2.38;;
35330;SDS011;21441;52.190;20.910;2023-05-08T14:12:21;2.65;;;1.80;;
35330;SDS011;21441;52.190;20.910;2023-05-08T14:14:48;1.98;;;1.77;;
35330;SDS011;21441;52.190;20.910;2023-05-08T14:17:16;2.72;;;2.13;;
35330;SDS011;21441;52.190;20.910;2023-05-08T14:19:43;4.00;;;1.80;;
35330;SDS011;21441;52.190;20.910;2023-05-08T14:22:10;2.92;;;2.20;;
35330;SDS011;21441;52.190;20.910;2023-05-08T14:24:37;4.35;;;2.40;;
35330;SDS011;21441;52.190;20.910;2023-05-08T14:27:06;2.22;;;2.00;;
35330;SDS011;21441;52.190;20.910;2023-05-08T14:29:33;5.18;;;2.20;;
35330;SDS011;21441;52.190;20.910;2023-05-08T14:32:01;4.07;;;2.15;;
35330;SDS011;21441;52.190;20.910;2023-05-08T14:34:28;2.22;;;1.80;;
35330;SDS011;21441;52.190;20.910;2023-05-08T14:36:55;2.53;;;1.92;;
35330;SDS011;21441;52.190;20.910;2023-05-08T14:39:22;7.07;;;2.30;;
35330;SDS011;21441;52.190;20.910;2023-05-08T14:41:50;4.72;;;1.90;;
35330;SDS011;21441;52.190;20.910;2023-05-08T14:44:18;3.30;;;2.10;;
35330;SDS011;21441;52.190;20.910;2023-05-08T14:46:46;2.70;;;2.28;;
35330;SDS011;21441;52.190;20.910;2023-05-08T14:49:13;3.22;;;2.03;;
35330;SDS011;21441;52.190;20.910;2023-05-08T14:51:40;3.83;;;2.03;;
35330;SDS011;21441;52.190;20.910;2023-05-08T14:54:07;2.10;;;1.90;;
35330;SDS011;21441;52.190;20.910;2023-05-08T14:56:34;3.20;;;2.10;;